Time;durP1;ratioP1;P1;durP2;ratioP2;P2;SDS_P1;SDS_P2;PMS_P1;PMS_P2;Temp;Humidity;BMP_temperature;BMP_pressure;BME280_temperature;BME280_humidity;BME280_pressure;Samples;Min_cycle;Max_cycle;Signal;HPM_P1;HPM_P2
2022/07/26 00:00:48;;;;;;;;;13.00;11.67;;;;;27.34;39.14;98150.38;6092993;28;97076;-57
2022/07/26 00:03:54;;;;;;;;;15.50;15.50;;;;;27.09;39.33;98110.88;6093234;28;97476;-57
2022/07/26 00:07:15;;;;;;;;;14.00;13.00;;;;;27.26;39.55;98141.06;6092427;28;97842;-57
2022/07/26 00:10:18;;;;;;;;;15.40;14.00;;;;;27.21;39.70;98137.72;6093359;28;96948;-58
2022/07/26 00:13:24;;;;;;;;;17.00;16.00;;;;;27.14;39.32;98130.00;6092645;28;96977;-58
2022/07/26 00:16:33;;;;;;;;;16.00;14.50;;;;;26.92;39.99;98106.41;6093790;28;97543;-57
2022/07/26 00:19:37;;;;;;;;;17.50;16.50;;;;;26.84;39.94;98093.47;6093340;28;97678;-60
2022/07/26 00:22:40;;;;;;;;;16.00;14.60;;;;;26.98;39.98;98124.38;6093301;28;98088;-59
2022/07/26 00:25:43;;;;;;;;;14.00;13.40;;;;;26.96;40.21;98118.38;6092097;28;96993;-58
2022/07/26 00:28:48;;;;;;;;;13.00;13.00;;;;;26.94;40.15;98108.81;6092465;28;97269;-58
2022/07/26 00:31:51;;;;;;;;;15.40;15.40;;;;;26.89;40.36;98107.09;6092806;28;96932;-58
2022/07/26 00:34:55;;;;;;;;;16.00;14.00;;;;;26.87;40.54;98108.59;6093007;28;97479;-57
2022/07/26 00:37:59;;;;;;;;;16.00;16.00;;;;;26.83;40.58;98105.69;6092065;28;97452;-58
2022/07/26 00:41:02;;;;;;;;;15.60;15.00;;;;;26.80;40.61;98111.09;6092153;28;97417;-59
2022/07/26 00:44:08;;;;;;;;;16.60;15.00;;;;;26.76;40.42;98101.88;6091940;28;96913;-58
2022/07/26 00:47:11;;;;;;;;;14.00;14.00;;;;;26.72;40.55;98101.78;6092856;28;96976;-58
2022/07/26 00:50:17;;;;;;;;;13.75;13.75;;;;;26.69;40.77;98096.94;6091701;28;97596;-57
2022/07/26 00:53:21;;;;;;;;;14.20;14.20;;;;;26.68;40.88;98106.41;6091940;28;97429;-59
2022/07/26 00:56:26;;;;;;;;;16.00;15.00;;;;;26.66;40.67;98111.47;6092509;28;96932;-58
2022/07/26 00:59:31;;;;;;;;;16.00;14.75;;;;;26.62;40.68;98103.06;6091144;28;97301;-58
2022/07/26 01:02:34;;;;;;;;;15.00;14.25;;;;;26.60;40.87;98110.06;6091905;28;96419;-58
2022/07/26 01:05:38;;;;;;;;;14.00;12.80;;;;;26.58;40.78;98106.84;6092116;28;97577;-58
2022/07/26 01:08:41;;;;;;;;;15.00;14.00;;;;;26.54;41.01;98108.66;6090991;28;96428;-58
2022/07/26 01:11:45;;;;;;;;;14.50;13.50;;;;;26.49;41.07;98103.38;6092454;28;97533;-60
2022/07/26 01:14:50;;;;;;;;;12.50;12.50;;;;;26.42;41.34;98097.63;6092060;28;97436;-61
2022/07/26 01:17:53;;;;;;;;;14.80;14.80;;;;;26.33;41.26;98092.22;6091979;28;96913;-58
2022/07/26 01:21:01;;;;;;;;;15.00;14.00;;;;;26.27;41.40;98090.81;6091022;28;96920;-58
2022/07/26 01:24:18;;;;;;;;;14.00;13.00;;;;;26.19;41.54;98091.72;6084823;28;97521;-60
2022/07/26 01:27:21;;;;;;;;;16.00;16.00;;;;;26.14;41.60;98086.41;6092232;28;97444;-60
2022/07/26 01:30:25;;;;;;;;;17.60;16.20;;;;;26.09;41.87;98086.63;6092189;28;97406;-60
2022/07/26 01:33:28;;;;;;;;;17.00;17.00;;;;;25.92;41.81;98056.41;6091754;28;97234;-60
2022/07/26 01:36:32;;;;;;;;;17.00;15.00;;;;;26.01;41.92;98079.22;6091813;28;96543;-58
2022/07/26 01:39:39;;;;;;;;;14.50;14.50;;;;;25.97;42.13;98081.06;6089600;28;98099;-60
2022/07/26 01:42:49;;;;;;;;;17.00;16.00;;;;;25.93;42.02;98082.91;6310985;27;96180;-60
2022/07/26 01:45:53;;;;;;;;;13.80;13.80;;;;;25.87;42.28;98083.09;6282834;27;97498;-58
2022/07/26 01:48:56;;;;;;;;;16.00;15.00;;;;;25.80;42.17;98066.28;6283016;27;96989;-58
2022/07/26 01:52:00;;;;;;;;;18.00;17.00;;;;;25.83;42.14;98070.31;6283609;27;97663;-59
2022/07/26 01:55:03;;;;;;;;;18.00;17.60;;;;;25.77;42.28;98057.88;6283165;27;97486;-60
2022/07/26 01:58:08;;;;;;;;;16.00;15.00;;;;;25.71;42.49;98060.03;6282873;27;97532;-59
2022/07/26 02:01:12;;;;;;;;;14.00;14.00;;;;;25.71;42.18;98049.00;6282214;27;98003;-58
2022/07/26 02:07:37;;;;;;;;;17.00;17.00;;;;;25.67;42.65;98045.31;6270126;27;97451;-58
2022/07/26 02:14:03;;;;;;;;;16.00;16.00;;;;;25.63;43.00;98035.28;6259846;27;96959;-58
2022/07/26 02:17:07;;;;;;;;;15.00;14.00;;;;;25.63;42.83;98029.78;6269143;27;97156;-59
2022/07/26 02:20:11;;;;;;;;;16.50;15.50;;;;;25.59;42.85;98024.13;6283227;27;96716;-58
2022/07/26 02:23:15;;;;;;;;;17.00;15.80;;;;;25.59;43.02;98031.59;6282525;27;97103;-58
2022/07/26 02:26:18;;;;;;;;;16.00;15.50;;;;;25.57;42.84;98037.47;6276856;27;98385;-57
2022/07/26 02:29:23;;;;;;;;;17.00;14.80;;;;;25.58;43.19;98041.03;6257296;27;96827;-59
2022/07/26 02:32:26;;;;;;;;;16.40;15.40;;;;;25.49;43.11;98030.06;6256610;27;96810;-59
2022/07/26 02:35:30;;;;;;;;;18.50;18.00;;;;;25.54;43.31;98032.59;6257844;27;97218;-56
2022/07/26 02:38:34;;;;;;;;;16.00;15.00;;;;;25.54;43.53;98035.34;6278498;27;97474;-57
2022/07/26 02:41:37;;;;;;;;;18.00;17.00;;;;;25.53;43.55;98033.75;6273781;27;97353;-57
2022/07/26 02:44:42;;;;;;;;;16.00;16.00;;;;;25.52;43.34;98032.13;6301011;27;96720;-57
2022/07/26 02:47:46;;;;;;;;;17.00;17.00;;;;;25.54;43.63;98029.84;6287230;27;97482;-58
2022/07/26 02:50:49;;;;;;;;;15.60;15.60;;;;;25.56;43.38;98032.31;6268346;27;98371;-58
2022/07/26 02:53:53;;;;;;;;;16.60;15.20;;;;;25.48;43.79;98014.63;6269648;27;97013;-56
2022/07/26 02:56:57;;;;;;;;;16.00;15.00;;;;;25.56;43.80;98018.50;6265668;27;97446;-58
2022/07/26 03:00:02;;;;;;;;;17.40;16.40;;;;;25.46;43.62;97998.41;6271102;27;97427;-59
2022/07/26 03:03:05;;;;;;;;;16.20;16.20;;;;;25.53;43.67;98005.34;6269077;27;96660;-57
2022/07/26 03:06:09;;;;;;;;;16.00;16.00;;;;;25.51;43.85;97997.38;6289557;27;96991;-58
2022/07/26 03:09:12;;;;;;;;;15.00;14.80;;;;;25.53;43.88;97994.28;6289709;27;96888;-59
2022/07/26 03:12:16;;;;;;;;;16.00;16.00;;;;;25.53;43.97;97992.34;6282315;27;98068;-57
2022/07/26 03:15:23;;;;;;;;;20.00;19.60;;;;;25.54;44.07;97996.72;6279193;27;97537;-56
2022/07/26 03:18:26;;;;;;;;;18.40;18.20;;;;;25.55;44.18;97997.56;6265702;27;96830;-59
2022/07/26 03:21:30;;;;;;;;;20.00;18.00;;;;;25.58;44.13;97991.34;6265542;27;98349;-59
2022/07/26 03:24:33;;;;;;;;;18.20;17.20;;;;;25.61;44.35;97996.22;6264669;27;97467;-59
2022/07/26 03:27:36;;;;;;;;;17.20;16.00;;;;;25.60;44.24;97989.88;6279798;27;97442;-58
2022/07/26 03:30:41;;;;;;;;;17.00;16.25;;;;;25.68;43.96;97993.69;6279323;27;97619;-59
2022/07/26 03:33:44;;;;;;;;;18.00;18.00;;;;;25.72;43.89;97994.59;6264975;27;96551;-58
2022/07/26 03:36:48;;;;;;;;;21.00;18.40;;;;;25.76;43.70;97979.75;6268063;27;97594;-56
2022/07/26 03:39:51;;;;;;;;;23.00;22.60;;;;;25.80;43.78;97988.97;6272770;27;97115;-58
2022/07/26 03:42:55;;;;;;;;;20.00;18.00;;;;;25.85;43.78;97986.00;6268135;27;96876;-57
2022/07/26 03:46:00;;;;;;;;;20.00;19.40;;;;;25.90;43.80;97978.66;6265101;27;98420;-57
2022/07/26 03:49:03;;;;;;;;;20.75;19.00;;;;;25.95;43.45;97978.44;6280478;27;97338;-58
2022/07/26 03:52:09;;;;;;;;;19.80;19.40;;;;;26.00;43.48;97978.19;6281695;27;97253;-59
2022/07/26 03:58:33;;;;;;;;;18.60;18.60;;;;;26.03;43.53;97974.75;6268980;27;97555;-57
2022/07/26 04:01:41;;;;;;;;;20.00;18.00;;;;;26.09;43.62;97970.59;6272086;27;96732;-57
2022/07/26 04:04:44;;;;;;;;;20.00;18.20;;;;;26.16;43.47;97968.06;6286616;27;96865;-57
2022/07/26 04:07:48;;;;;;;;;18.00;17.00;;;;;26.22;43.31;97966.72;6275567;27;97526;-56
2022/07/26 04:10:55;;;;;;;;;22.00;20.00;;;;;26.26;42.79;97960.16;6269446;27;96817;-57
2022/07/26 04:13:59;;;;;;;;;20.00;19.60;;;;;26.32;43.01;97974.53;6264286;27;97536;-58
2022/07/26 04:17:04;;;;;;;;;19.00;18.00;;;;;26.39;42.86;97965.66;6266998;27;97410;-59
2022/07/26 04:20:09;;;;;;;;;23.00;22.60;;;;;26.47;42.95;97973.03;6266640;27;97233;-58
2022/07/26 04:23:13;;;;;;;;;28.40;23.40;;;;;26.55;42.71;97972.06;6269608;27;97759;-58
2022/07/26 04:26:16;;;;;;;;;21.40;21.00;;;;;26.61;42.76;97968.72;6275301;27;96986;-59
2022/07/26 04:29:20;;;;;;;;;16.00;15.00;;;;;26.54;42.52;97959.41;6275208;27;97184;-57
2022/07/26 04:32:25;;;;;;;;;18.60;18.60;;;;;26.74;42.43;97975.03;6273781;27;97479;-60
2022/07/26 04:35:28;;;;;;;;;20.80;18.80;;;;;26.81;42.04;97974.44;6271249;27;97601;-56
2022/07/26 04:38:31;;;;;;;;;19.00;17.00;;;;;26.87;42.42;97975.84;6243347;27;97645;-57
2022/07/26 04:41:35;;;;;;;;;15.00;15.00;;;;;26.93;42.34;97971.66;6263302;27;97706;-58
2022/07/26 04:44:38;;;;;;;;;16.20;15.20;;;;;27.02;42.00;97966.81;6278057;27;97728;-59
2022/07/26 04:47:44;;;;;;;;;18.00;16.20;;;;;27.12;42.58;97977.38;6287875;27;97720;-58
2022/07/26 04:50:51;;;;;;;;;14.80;13.80;;;;;27.24;42.25;97977.31;6288038;27;97355;-57
2022/07/26 04:53:55;;;;;;;;;22.00;20.40;;;;;27.37;41.55;97966.97;6274663;27;97404;-57
2022/07/26 04:56:58;;;;;;;;;17.60;17.00;;;;;27.50;42.05;97966.59;6263048;27;97146;-58
2022/07/26 05:00:03;;;;;;;;;18.00;17.00;;;;;27.66;41.96;97969.38;6275361;27;97482;-56
2022/07/26 05:03:24;;;;;;;;;21.50;21.00;;;;;27.85;41.48;97971.47;6268180;27;97580;-59
2022/07/26 05:06:28;;;;;;;;;26.80;25.80;;;;;28.01;41.22;97975.03;6264150;27;96726;-58
2022/07/26 05:09:31;;;;;;;;;22.00;21.00;;;;;28.16;40.58;97970.66;6279110;27;97437;-59
2022/07/26 05:12:35;;;;;;;;;19.00;17.00;;;;;28.27;41.02;97971.72;6275527;27;97464;-58
2022/07/26 05:15:38;;;;;;;;;18.60;18.00;;;;;28.36;40.62;97967.59;6270695;27;97461;-56
2022/07/26 05:18:46;;;;;;;;;18.40;18.00;;;;;28.48;40.24;97974.22;6282269;27;97616;-56
2022/07/26 05:21:51;;;;;;;;;16.20;14.20;;;;;28.58;40.62;97976.41;6282500;27;96535;-58
2022/07/26 05:24:54;;;;;;;;;19.20;17.00;;;;;28.65;40.29;97982.13;6283653;27;97423;-57
2022/07/26 05:27:58;;;;;;;;;20.00;17.40;;;;;28.70;40.50;97981.81;6271096;27;97132;-56
2022/07/26 05:31:01;;;;;;;;;15.20;15.20;;;;;28.79;40.36;97974.13;6268327;27;97932;-56
2022/07/26 05:34:06;;;;;;;;;17.60;15.80;;;;;28.85;40.20;97981.00;6261550;27;97487;-58
2022/07/26 05:37:11;;;;;;;;;16.20;15.20;;;;;28.92;40.35;97986.72;6261400;27;97355;-58
2022/07/26 05:40:14;;;;;;;;;14.00;12.60;;;;;28.98;39.89;97976.91;6248843;27;97169;-59
2022/07/26 05:43:18;;;;;;;;;17.00;15.50;;;;;29.03;40.39;97976.63;6284708;27;97413;-56
2022/07/26 05:46:21;;;;;;;;;14.60;14.60;;;;;29.12;40.06;97973.66;6287804;27;96937;-57
2022/07/26 05:49:26;;;;;;;;;16.00;16.00;;;;;29.21;39.98;97975.03;6283400;27;96693;-56
2022/07/26 05:52:42;;;;;;;;;16.00;15.60;;;;;29.34;39.44;97977.69;6267326;27;97160;-58
2022/07/26 05:55:45;;;;;;;;;16.60;16.60;;;;;29.47;39.37;97974.38;6266466;27;96693;-59
2022/07/26 05:58:48;;;;;;;;;17.20;15.60;;;;;29.63;39.46;97974.28;6266429;27;97850;-57
2022/07/26 06:01:55;;;;;;;;;18.00;16.00;;;;;29.82;39.12;97988.09;6275865;27;96888;-58
2022/07/26 06:05:00;;;;;;;;;15.25;14.00;;;;;30.01;38.82;97988.06;6266857;27;96953;-58
2022/07/26 06:08:03;;;;;;;;;17.60;17.00;;;;;30.19;37.78;98007.84;6268788;27;97116;-56
2022/07/26 06:11:07;;;;;;;;;14.50;13.50;;;;;30.33;37.17;98018.41;6272143;27;97466;-58
2022/07/26 06:14:10;;;;;;;;;16.00;15.00;;;;;30.45;37.35;98029.31;6264566;27;97448;-58
2022/07/26 06:17:14;;;;;;;;;16.00;16.00;;;;;30.54;36.80;98036.25;6283595;27;97579;-56
2022/07/26 06:20:19;;;;;;;;;17.80;15.00;;;;;30.59;36.43;98037.13;6267020;27;97432;-58
2022/07/26 06:23:23;;;;;;;;;15.25;14.50;;;;;30.61;36.56;98049.47;6274047;27;97078;-56
2022/07/26 06:26:37;;;;;;;;;15.80;15.40;;;;;30.63;36.04;98054.66;6280705;27;97543;-56
2022/07/26 06:29:40;;;;;;;;;18.00;17.00;;;;;30.65;36.25;98036.41;6275419;27;97028;-58
2022/07/26 06:32:43;;;;;;;;;18.60;16.00;;;;;30.70;35.91;98047.22;6276170;27;97925;-56
2022/07/26 06:35:48;;;;;;;;;17.40;17.00;;;;;30.78;36.23;98037.00;6271140;27;97658;-56
2022/07/26 06:38:53;;;;;;;;;16.80;15.20;;;;;30.83;36.28;98051.41;6276356;27;96870;-57
2022/07/26 06:41:57;;;;;;;;;15.00;14.40;;;;;30.88;35.82;98062.22;6275237;27;98243;-54
2022/07/26 06:45:01;;;;;;;;;16.25;14.75;;;;;30.92;36.27;98057.50;6255818;27;97524;-57
2022/07/26 06:48:04;;;;;;;;;17.60;17.00;;;;;30.98;37.01;98058.75;6275494;27;97222;-57
2022/07/26 06:51:10;;;;;;;;;18.00;16.40;;;;;31.05;37.77;98066.47;6277065;27;96725;-57
2022/07/26 06:54:13;;;;;;;;;16.00;15.00;;;;;31.15;37.84;98056.66;6287829;27;96647;-55
2022/07/26 06:57:17;;;;;;;;;14.00;13.60;;;;;31.25;37.19;98067.13;6272619;27;97402;-56
2022/07/26 07:00:20;;;;;;;;;15.00;14.50;;;;;31.35;35.77;98061.69;6264765;27;97374;-63
2022/07/26 07:03:23;;;;;;;;;15.00;13.00;;;;;31.51;34.55;98075.44;6265035;27;97428;-56
2022/07/26 07:06:28;;;;;;;;;12.50;11.50;;;;;31.64;34.76;98067.63;6290383;27;96457;-60
2022/07/26 07:09:31;;;;;;;;;12.00;11.00;;;;;31.75;34.83;98068.56;6278149;27;98598;-54
2022/07/26 07:12:35;;;;;;;;;14.25;14.00;;;;;31.87;34.91;98084.22;6264889;27;97490;-58
2022/07/26 07:15:38;;;;;;;;;11.80;11.00;;;;;32.01;35.12;98076.03;6265189;27;96709;-56
2022/07/26 07:18:42;;;;;;;;;17.00;17.00;;;;;32.07;35.00;98072.50;6253074;27;97223;-58
2022/07/26 07:21:46;;;;;;;;;18.00;16.60;;;;;32.23;35.27;98083.44;6289585;27;96432;-59
2022/07/26 07:24:50;;;;;;;;;18.00;17.00;;;;;32.36;35.21;98095.09;6273356;27;96857;-57
2022/07/26 07:27:53;;;;;;;;;14.00;13.00;;;;;32.46;34.84;98074.88;6267301;27;98021;-65
2022/07/26 07:30:57;;;;;;;;;18.20;16.60;;;;;32.60;34.87;98078.56;6277362;27;97160;-56
2022/07/26 07:34:00;;;;;;;;;17.00;15.60;;;;;32.72;34.63;98085.88;6262187;27;97876;-53
2022/07/26 07:37:07;;;;;;;;;20.40;20.40;;;;;32.88;34.28;98091.19;6274280;27;98302;-60
2022/07/26 07:40:14;;;;;;;;;21.00;20.40;;;;;33.09;34.18;98096.91;6278477;27;97217;-56
2022/07/26 07:43:19;;;;;;;;;18.40;16.00;;;;;33.25;34.01;98124.56;6278613;27;96834;-60
2022/07/26 07:46:23;;;;;;;;;17.50;16.50;;;;;33.36;33.30;98117.84;6271225;27;97594;-56
2022/07/26 07:49:26;;;;;;;;;20.00;19.00;;;;;33.53;32.85;98119.91;6273254;27;97120;-57
2022/07/26 07:52:31;;;;;;;;;22.40;19.00;;;;;33.65;32.64;98112.41;6281613;27;97176;-59
2022/07/26 07:55:34;;;;;;;;;19.00;17.00;;;;;33.73;32.10;98125.22;6286551;27;97038;-56
2022/07/26 07:58:46;;;;;;;;;21.80;19.60;;;;;33.93;32.32;98126.50;6266609;27;96683;-57
2022/07/26 08:01:50;;;;;;;;;17.00;17.00;;;;;34.08;31.99;98128.16;6279410;27;97398;-59
2022/07/26 08:04:54;;;;;;;;;19.60;17.00;;;;;34.32;31.53;98132.22;6273175;27;96519;-58
2022/07/26 08:08:03;;;;;;;;;18.80;17.00;;;;;34.43;31.95;98141.44;6270455;27;98058;-56
2022/07/26 08:11:10;;;;;;;;;18.00;17.00;;;;;34.32;32.16;98155.41;6273985;27;96881;-54
2022/07/26 08:14:14;;;;;;;;;16.00;15.00;;;;;34.26;32.38;98150.59;6275138;27;97503;-58
2022/07/26 08:17:19;;;;;;;;;17.40;16.00;;;;;34.20;32.82;98152.19;6281946;27;96913;-58
2022/07/26 08:20:25;;;;;;;;;19.00;18.00;;;;;34.14;33.08;98164.94;6273045;27;98324;-61
2022/07/26 08:23:30;;;;;;;;;17.00;16.00;;;;;34.07;32.99;98165.69;6256764;27;97714;-56
2022/07/26 08:26:33;;;;;;;;;19.00;17.00;;;;;34.01;33.14;98172.91;6266325;27;97745;-54
2022/07/26 08:29:36;;;;;;;;;18.00;17.00;;;;;33.98;33.37;98178.47;6269645;27;97431;-58
2022/07/26 08:32:40;;;;;;;;;20.40;19.00;;;;;33.97;33.53;98182.44;6278831;27;97665;-59
2022/07/26 08:35:46;;;;;;;;;22.50;19.00;;;;;33.88;33.92;98197.59;6273874;27;98611;-58
2022/07/26 08:38:51;;;;;;;;;22.00;18.50;;;;;33.88;34.10;98196.78;6275807;27;96540;-62
2022/07/26 08:41:54;;;;;;;;;18.00;17.60;;;;;33.80;34.13;98207.16;6271692;27;97587;-57
2022/07/26 08:44:58;;;;;;;;;21.50;20.50;;;;;33.69;34.60;98214.69;6280119;27;96658;-54
2022/07/26 08:48:02;;;;;;;;;21.00;21.00;;;;;33.61;34.62;98221.41;6286966;27;96798;-60
2022/07/26 08:51:23;;;;;;;;;22.40;21.40;;;;;33.35;35.00;98236.38;6274528;27;97826;-58
2022/07/26 08:54:28;;;;;;;;;24.00;23.67;;;;;33.16;35.39;98245.03;6286448;27;97535;-59
2022/07/26 08:57:31;;;;;;;;;23.00;21.80;;;;;32.99;35.92;98242.84;6249902;27;98494;-57
2022/07/26 09:00:34;;;;;;;;;26.20;24.00;;;;;32.80;36.43;98251.44;6266641;27;97048;-57
2022/07/26 09:03:41;;;;;;;;;23.20;20.40;;;;;32.64;36.96;98254.47;6275536;27;97240;-56
2022/07/26 09:06:56;;;;;;;;;23.00;22.00;;;;;32.51;37.02;98255.88;6276074;27;97174;-58
2022/07/26 09:10:04;;;;;;;;;23.00;21.20;;;;;32.46;37.30;98259.00;6273763;27;97410;-58
2022/07/26 09:13:08;;;;;;;;;26.80;24.00;;;;;32.43;37.41;98259.78;6275754;27;97926;-54
2022/07/26 09:16:12;;;;;;;;;22.50;21.75;;;;;32.28;37.29;98255.22;6262423;27;96557;-56
2022/07/26 09:19:18;;;;;;;;;26.60;26.00;;;;;32.38;37.62;98265.72;6269348;27;97498;-63
2022/07/26 09:22:21;;;;;;;;;19.25;17.25;;;;;32.31;37.16;98274.78;6283832;27;97590;-55
2022/07/26 09:25:27;;;;;;;;;25.00;23.00;;;;;32.09;37.62;98254.19;6287955;27;97163;-57
2022/07/26 09:28:32;;;;;;;;;24.00;22.00;;;;;32.04;37.74;98276.00;6279337;27;97334;-60
2022/07/26 09:31:35;;;;;;;;;22.00;20.50;;;;;31.93;38.38;98289.00;6272605;27;97475;-56
2022/07/26 09:34:39;;;;;;;;;25.40;25.00;;;;;31.83;38.43;98290.44;6268694;27;99653;-58
2022/07/26 09:37:54;;;;;;;;;26.50;25.25;;;;;31.74;38.30;98298.28;6287821;27;96536;-55
2022/07/26 09:40:59;;;;;;;;;26.40;24.40;;;;;31.67;38.81;98301.75;6286322;27;96806;-58
2022/07/26 09:44:05;;;;;;;;;24.00;23.00;;;;;31.58;39.58;98292.06;6275712;27;97184;-62
2022/07/26 09:47:09;;;;;;;;;31.00;30.00;;;;;31.49;40.02;98313.78;6281334;27;98230;-58
2022/07/26 09:50:14;;;;;;;;;24.00;21.00;;;;;31.31;39.92;98307.94;6283662;27;96488;-56
2022/07/26 09:53:21;;;;;;;;;25.60;25.60;;;;;31.20;39.92;98315.28;6262880;27;96909;-58
2022/07/26 09:56:42;;;;;;;;;30.00;25.00;;;;;31.04;40.12;98318.19;6263656;27;97477;-58
2022/07/26 09:59:46;;;;;;;;;26.40;24.40;;;;;30.88;40.42;98312.72;6285745;27;96809;-56
2022/07/26 10:02:50;;;;;;;;;25.00;24.50;;;;;30.79;40.71;98323.25;6283629;27;97471;-60
2022/07/26 10:05:54;;;;;;;;;28.00;26.40;;;;;30.65;41.40;98322.19;6266006;27;97566;-61
2022/07/26 10:09:01;;;;;;;;;29.40;28.40;;;;;30.58;41.12;98331.22;6268137;27;97206;-64
2022/07/26 10:12:08;;;;;;;;;22.40;18.60;;;;;30.52;41.21;98333.47;6272651;27;97382;-56
2022/07/26 10:15:34;;;;;;;;;29.80;28.80;;;;;30.46;41.44;98334.13;6298536;27;96950;-55
2022/07/26 10:18:46;;;;;;;;;29.00;26.60;;;;;30.42;41.76;98336.81;6266787;27;97452;-58
2022/07/26 10:21:51;;;;;;;;;28.00;26.00;;;;;30.36;42.03;98329.13;6265599;27;96657;-63
2022/07/26 10:24:55;;;;;;;;;28.75;26.00;;;;;30.33;41.97;98343.75;6266219;27;97486;-60
2022/07/26 10:28:01;;;;;;;;;29.20;27.40;;;;;30.32;41.66;98326.25;6274672;27;97477;-56
2022/07/26 10:31:30;;;;;;;;;25.80;24.80;;;;;30.31;41.87;98349.69;6291370;27;96574;-60
2022/07/26 10:34:35;;;;;;;;;24.50;23.50;;;;;30.31;41.62;98357.22;6290164;27;97102;-57
2022/07/26 10:37:57;;;;;;;;;27.40;26.00;;;;;30.25;41.69;98350.34;6278282;27;97678;-57
2022/07/26 10:41:02;;;;;;;;;24.20;21.60;;;;;30.30;42.08;98363.97;6281826;27;97409;-54
2022/07/26 10:44:23;;;;;;;;;26.00;25.00;;;;;30.31;41.91;98360.00;6275758;27;97055;-56
2022/07/26 10:47:27;;;;;;;;;24.00;22.00;;;;;30.33;41.98;98363.22;6279637;27;96822;-57
2022/07/26 10:50:38;;;;;;;;;25.60;23.60;;;;;30.31;41.46;98368.34;6282812;27;96879;-58
2022/07/26 10:53:41;;;;;;;;;25.40;23.00;;;;;30.31;41.43;98371.91;6246828;27;97414;-58
2022/07/26 10:56:44;;;;;;;;;24.60;22.60;;;;;30.31;42.12;98369.16;6265149;27;97340;-60
2022/07/26 10:59:49;;;;;;;;;26.00;23.60;;;;;30.30;42.16;98367.53;6275507;27;97419;-58
2022/07/26 11:02:59;;;;;;;;;27.40;24.00;;;;;30.30;42.03;98370.31;6259652;27;98470;-60
2022/07/26 11:06:10;;;;;;;;;27.00;25.25;;;;;30.28;41.78;98371.84;6274255;27;96907;-59
2022/07/26 11:09:13;;;;;;;;;31.00;29.80;;;;;30.23;42.41;98375.72;6255763;27;97498;-56
2022/07/26 11:12:18;;;;;;;;;33.00;29.20;;;;;30.20;42.08;98378.44;6273617;27;97508;-56
2022/07/26 11:15:23;;;;;;;;;27.00;25.25;;;;;30.19;42.25;98382.38;6271974;27;96583;-57
2022/07/26 11:18:29;;;;;;;;;30.00;27.50;;;;;30.18;42.53;98380.75;6275518;27;97605;-56
2022/07/26 11:21:32;;;;;;;;;31.00;29.40;;;;;30.15;42.39;98384.28;6268253;27;97035;-55
2022/07/26 11:24:40;;;;;;;;;35.80;32.40;;;;;29.97;42.89;98379.09;6229175;27;98462;-57
2022/07/26 11:27:58;;;;;;;;;28.20;26.20;;;;;29.96;43.29;98396.13;6246382;27;97516;-60
2022/07/26 11:31:04;;;;;;;;;27.00;26.00;;;;;29.90;43.09;98394.81;6266337;27;97586;-55
2022/07/26 11:34:15;;;;;;;;;30.00;28.00;;;;;29.83;43.63;98398.19;6283884;27;98085;-53
2022/07/26 11:37:18;;;;;;;;;28.00;27.00;;;;;29.79;43.97;98397.31;6287912;27;96461;-55
2022/07/26 11:40:43;;;;;;;;;24.00;24.00;;;;;29.78;44.17;98397.66;6284752;27;96829;-57
2022/07/26 11:43:47;;;;;;;;;25.00;24.00;;;;;29.71;44.63;98399.09;6262785;27;96759;-57
2022/07/26 11:46:52;;;;;;;;;27.00;25.00;;;;;29.67;44.52;98400.97;6266563;27;96830;-61
2022/07/26 11:49:56;;;;;;;;;27.00;25.80;;;;;29.68;45.22;98402.59;6288079;27;97138;-59
2022/07/26 11:53:21;;;;;;;;;27.20;24.00;;;;;29.69;44.61;98401.44;6260544;27;96841;-60
2022/07/26 11:56:27;;;;;;;;;22.00;22.00;;;;;29.49;45.01;98357.25;6271546;27;96910;-60
2022/07/26 11:59:33;;;;;;;;;25.00;23.00;;;;;29.75;44.84;98390.06;6275319;27;97430;-67
2022/07/26 12:02:38;;;;;;;;;23.80;21.80;;;;;29.73;44.20;98384.84;6277555;27;96654;-59
2022/07/26 12:05:41;;;;;;;;;20.00;20.00;;;;;29.76;44.41;98378.59;6271366;27;96267;-62
2022/07/26 12:08:47;;;;;;;;;19.00;18.00;;;;;29.80;44.78;98385.03;6268804;27;96672;-59
2022/07/26 12:11:58;;;;;;;;;24.40;21.40;;;;;29.80;44.51;98385.03;6286077;27;97972;-57
2022/07/26 12:15:04;;;;;;;;;21.40;19.00;;;;;29.81;44.55;98383.06;6264240;27;97836;-57
2022/07/26 12:18:10;;;;;;;;;23.00;21.00;;;;;29.81;44.93;98380.28;6273134;27;97698;-59
2022/07/26 12:21:13;;;;;;;;;22.00;21.00;;;;;29.82;44.69;98368.78;6272441;27;96690;-57
2022/07/26 12:24:39;;;;;;;;;25.60;21.60;;;;;29.78;45.38;98376.25;6285429;27;97413;-58
2022/07/26 12:27:46;;;;;;;;;22.00;20.00;;;;;29.77;45.76;98373.81;6265709;27;96817;-59
2022/07/26 12:30:49;;;;;;;;;23.80;22.40;;;;;29.76;45.98;98377.78;6276312;27;96814;-55
2022/07/26 12:33:55;;;;;;;;;22.00;20.00;;;;;29.77;46.17;98376.59;6269518;27;97424;-59
2022/07/26 12:37:13;;;;;;;;;24.60;23.00;;;;;29.78;46.87;98381.78;6288623;27;96438;-59
2022/07/26 12:40:17;;;;;;;;;26.00;25.00;;;;;29.71;46.37;98367.75;6272747;27;96807;-59
2022/07/26 12:43:23;;;;;;;;;26.00;24.00;;;;;29.87;47.07;98371.28;6263240;27;97495;-61
2022/07/26 12:46:27;;;;;;;;;27.75;25.00;;;;;29.95;47.36;98375.91;6262736;27;97319;-59
2022/07/26 12:49:32;;;;;;;;;27.50;26.00;;;;;30.00;47.58;98377.59;6263460;27;97361;-59
2022/07/26 12:52:36;;;;;;;;;29.80;28.00;;;;;29.88;47.86;98364.56;6263030;27;96716;-58
2022/07/26 12:55:39;;;;;;;;;28.20;27.00;;;;;29.86;47.79;98382.78;6283492;27;97318;-60
2022/07/26 12:58:43;;;;;;;;;26.00;23.00;;;;;29.72;48.00;98380.44;6280342;27;97327;-64
2022/07/26 13:01:46;;;;;;;;;25.60;23.40;;;;;29.66;48.63;98385.47;6273864;27;96666;-61
2022/07/26 13:04:51;;;;;;;;;23.60;22.60;;;;;29.61;48.73;98385.78;6245888;27;98770;-60
2022/07/26 13:08:02;;;;;;;;;23.40;21.60;;;;;29.53;48.73;98391.47;6262430;27;96881;-60
2022/07/26 13:11:05;;;;;;;;;23.40;22.00;;;;;29.47;48.96;98384.59;6280253;27;96408;-61
2022/07/26 13:14:08;;;;;;;;;22.00;22.00;;;;;29.36;49.25;98387.09;6267455;27;98103;-60
2022/07/26 13:17:15;;;;;;;;;24.00;22.20;;;;;29.29;50.38;98395.22;6272722;27;97706;-60
2022/07/26 13:20:20;;;;;;;;;22.00;20.60;;;;;29.22;50.73;98387.47;6260161;27;96536;-58
2022/07/26 13:23:23;;;;;;;;;23.00;21.20;;;;;29.18;51.17;98399.66;6278840;27;96625;-61
2022/07/26 13:26:28;;;;;;;;;23.60;21.40;;;;;29.08;50.62;98398.22;6273867;27;97020;-59
2022/07/26 13:29:33;;;;;;;;;21.50;20.00;;;;;29.04;51.17;98405.63;6285816;27;97581;-60
2022/07/26 13:32:37;;;;;;;;;22.00;20.60;;;;;28.89;52.05;98398.06;6265351;27;96797;-59
2022/07/26 13:35:42;;;;;;;;;19.40;17.40;;;;;28.89;51.76;98414.72;6261880;27;97557;-59
2022/07/26 13:38:45;;;;;;;;;13.00;13.00;;;;;28.78;50.67;98413.63;6273310;27;97386;-57
2022/07/26 13:41:49;;;;;;;;;12.00;12.00;;;;;28.64;51.48;98419.53;6287125;27;96616;-59
2022/07/26 13:44:53;;;;;;;;;9.80;9.00;;;;;28.44;51.26;98420.53;6269088;27;97644;-57
2022/07/26 13:47:57;;;;;;;;;8.75;8.00;;;;;28.44;50.46;98437.94;6252273;27;97566;-60
2022/07/26 13:51:03;;;;;;;;;9.20;8.20;;;;;28.36;50.31;98438.91;6262813;27;97800;-60
2022/07/26 13:54:06;;;;;;;;;11.40;11.40;;;;;28.26;50.23;98458.78;6262130;27;97971;-59
2022/07/26 13:57:10;;;;;;;;;8.00;7.20;;;;;28.14;50.12;98458.81;6262155;27;96492;-60
2022/07/26 14:00:14;;;;;;;;;7.80;6.00;;;;;27.82;50.28;98435.56;6262512;27;97403;-55
2022/07/26 14:03:18;;;;;;;;;9.00;8.60;;;;;27.93;49.45;98466.38;6271989;27;96795;-60
2022/07/26 14:06:25;;;;;;;;;10.00;9.00;;;;;27.84;48.57;98474.00;6268059;27;97872;-62
2022/07/26 14:09:28;;;;;;;;;8.00;7.80;;;;;27.79;48.78;98477.81;6242813;27;99524;-58
2022/07/26 14:12:32;;;;;;;;;9.00;9.00;;;;;27.73;49.57;98470.88;6263924;27;96565;-58
2022/07/26 14:15:36;;;;;;;;;13.40;12.60;;;;;27.71;49.77;98470.41;6258285;27;96879;-60
2022/07/26 14:18:39;;;;;;;;;9.00;9.00;;;;;27.72;49.60;98472.03;6262407;27;97963;-60
2022/07/26 14:21:44;;;;;;;;;8.00;8.00;;;;;27.71;49.86;98470.41;6265267;27;96842;-57